Mount Pleasant, Texas
Current Conditions -  °F | °C
As of 1:15 AM on Sunday 23 Nov 2014 (Local Time) from KOSA Reporting Station
Broken Clouds Broken Clouds  
Wind Chill: 61°   Ceiling: 900
Heat Index: 61°   Visibility: 10mi
Dew Point: 60°   Wind: 12mph
Humidity: 96%   Direction: 120°ESE
Pressure: 29.66"   Gusts: NA
Location:  33.16°N, 94.97°W
Report Text: KOSA 230715Z AUTO 12010KT 10SM BKN009 BKN120 16/16 A2966 RMK AO1 T01610155
Loading
Personal Weather Stations






























Interactive Weather Map New forecast layout! Learn more

10-Day Weather Forecast

Advertisements
Track Severe Weather on mobile